Time;durP1;ratioP1;P1;durP2;ratioP2;P2;SDS_P1;SDS_P2;PMS_P1;PMS_P2;Temp;Humidity;BMP_temperature;BMP_pressure;BME280_temperature;BME280_humidity;BME280_pressure;Samples;Min_cycle;Max_cycle;Signal;HPM_P1;HPM_P2
2022/03/25 04:02:07;;;;;;;3.47;3.17;;;18.40;47.20;;;;;;5180901;22;45725;-62
2022/03/25 04:04:34;;;;;;;5.22;2.97;;;18.40;47.20;;;;;;5003111;28;45351;-63
2022/03/25 04:07:00;;;;;;;3.28;2.90;;;18.40;47.20;;;;;;4987032;28;45735;-63
2022/03/25 04:09:26;;;;;;;3.50;3.20;;;18.40;47.20;;;;;;4986729;28;45795;-62
2022/03/25 04:11:53;;;;;;;4.00;3.28;;;18.40;47.20;;;;;;4990427;28;45600;-61
2022/03/25 04:14:21;;;;;;;4.20;3.40;;;18.30;47.20;;;;;;4995885;28;47402;-63
2022/03/25 04:16:47;;;;;;;3.58;3.05;;;18.30;47.20;;;;;;4980425;28;45465;-60
2022/03/25 04:19:13;;;;;;;3.47;3.08;;;18.30;47.20;;;;;;4989924;28;45427;-61
2022/03/25 04:21:39;;;;;;;3.95;3.22;;;18.30;47.30;;;;;;4997123;28;46381;-61
2022/03/25 04:24:05;;;;;;;5.13;3.10;;;18.30;47.30;;;;;;4995923;28;44821;-63
2022/03/25 04:26:31;;;;;;;4.85;3.20;;;18.30;47.30;;;;;;4987854;28;45091;-62
2022/03/25 04:28:57;;;;;;;3.38;2.95;;;18.30;47.30;;;;;;4985900;28;45959;-59
2022/03/25 04:31:22;;;;;;;3.35;3.05;;;18.30;47.30;;;;;;5002273;28;45441;-60
2022/03/25 04:33:48;;;;;;;4.13;3.42;;;18.30;47.30;;;;;;4998923;28;45477;-63
2022/03/25 04:36:14;;;;;;;3.50;3.20;;;18.30;47.30;;;;;;4988205;28;45086;-63
2022/03/25 04:38:40;;;;;;;3.47;3.08;;;18.30;47.30;;;;;;5005748;28;45127;-61
2022/03/25 04:41:09;;;;;;;3.35;3.03;;;18.30;47.30;;;;;;5004663;28;47086;-60
2022/03/25 04:43:38;;;;;;;3.58;3.28;;;18.20;47.30;;;;;;4986356;28;45308;-61
2022/03/25 04:46:04;;;;;;;3.75;3.20;;;18.20;47.30;;;;;;4990312;28;45250;-59
2022/03/25 04:48:30;;;;;;;3.15;2.85;;;18.20;47.40;;;;;;5009986;28;44922;-60
2022/03/25 04:50:56;;;;;;;3.47;3.00;;;18.20;47.30;;;;;;4993770;28;47165;-59
2022/03/25 04:53:21;;;;;;;4.10;3.10;;;18.20;47.30;;;;;;5005736;28;45378;-59
2022/03/25 04:55:47;;;;;;;4.07;3.30;;;18.20;47.40;;;;;;5002987;28;44913;-64
2022/03/25 04:58:12;;;;;;;4.03;3.35;;;18.20;47.40;;;;;;5019345;28;47877;-62
2022/03/25 05:00:38;;;;;;;3.55;3.25;;;18.20;47.40;;;;;;5013179;28;45245;-61
2022/03/25 05:03:04;;;;;;;3.63;2.90;;;18.20;47.40;;;;;;4984498;28;44894;-61
2022/03/25 05:05:31;;;;;;;4.00;3.28;;;18.20;47.40;;;;;;4993045;28;45241;-61
2022/03/25 05:07:57;;;;;;;4.25;3.17;;;18.20;47.40;;;;;;5006548;28;45885;-62
2022/03/25 05:10:23;;;;;;;3.95;3.30;;;18.20;47.40;;;;;;4990904;28;46391;-62
2022/03/25 05:12:48;;;;;;;3.30;2.85;;;18.10;47.40;;;;;;5003235;28;45502;-61
2022/03/25 05:15:14;;;;;;;4.32;3.65;;;18.10;47.40;;;;;;5002567;28;45048;-63
2022/03/25 05:17:47;;;;;;;4.07;3.65;;;18.10;47.40;;;;;;5004115;28;45237;-62
2022/03/25 05:20:14;;;;;;;4.53;2.72;;;18.10;47.40;;;;;;4992001;28;45668;-60
2022/03/25 05:22:40;;;;;;;3.42;3.00;;;18.10;47.50;;;;;;5007500;28;45382;-63
2022/03/25 05:25:07;;;;;;;4.00;3.17;;;18.10;47.40;;;;;;5009342;28;45356;-61
2022/03/25 05:27:57;;;;;;;3.30;2.80;;;18.10;48.00;;;;;;4990666;28;44899;-61
2022/03/25 05:30:32;;;;;;;4.35;3.47;;;18.10;47.50;;;;;;4978115;28;47585;-62
2022/03/25 05:32:58;;;;;;;3.97;3.17;;;18.10;47.50;;;;;;4986230;28;45354;-62
2022/03/25 05:35:25;;;;;;;3.38;3.08;;;18.10;47.40;;;;;;5007002;28;45450;-60
2022/03/25 05:37:51;;;;;;;3.10;2.80;;;18.10;47.40;;;;;;5010010;28;45573;-61
2022/03/25 05:40:18;;;;;;;3.70;3.35;;;18.10;47.40;;;;;;4989446;28;46959;-61
2022/03/25 05:42:44;;;;;;;3.42;3.13;;;18.10;47.40;;;;;;5007205;28;44652;-61
2022/03/25 05:45:10;;;;;;;3.72;3.33;;;18.10;47.40;;;;;;4975709;28;45139;-64
2022/03/25 05:47:36;;;;;;;4.78;3.20;;;18.10;47.40;;;;;;4994578;28;45528;-63
2022/03/25 05:50:05;;;;;;;3.30;3.00;;;18.30;47.10;;;;;;5003580;28;45992;-64
2022/03/25 05:52:31;;;;;;;4.05;3.55;;;18.40;46.90;;;;;;5011443;28;45273;-64
2022/03/25 05:54:57;;;;;;;5.32;3.13;;;18.40;46.60;;;;;;5005447;28;45932;-62
2022/03/25 05:57:22;;;;;;;3.95;3.20;;;18.50;46.50;;;;;;5012003;28;45658;-62
2022/03/25 05:59:48;;;;;;;3.60;3.13;;;18.60;46.30;;;;;;5006131;28;47672;-62
2022/03/25 06:02:14;;;;;;;4.13;3.50;;;18.70;46.10;;;;;;4994410;28;45365;-61
2022/03/25 06:04:40;;;;;;;3.47;2.95;;;18.70;46.00;;;;;;5005130;28;45431;-61
2022/03/25 06:07:06;;;;;;;4.10;3.15;;;18.80;45.90;;;;;;5000654;28;45314;-61
2022/03/25 06:09:32;;;;;;;4.10;3.70;;;18.80;45.70;;;;;;5005482;28;47253;-60
2022/03/25 06:11:57;;;;;;;3.45;3.00;;;18.90;45.60;;;;;;4993050;28;46274;-57
2022/03/25 06:14:24;;;;;;;3.30;2.75;;;19.00;45.40;;;;;;5007652;28;45460;-60
2022/03/25 06:16:50;;;;;;;4.25;3.25;;;19.00;45.20;;;;;;5003785;28;45217;-61
2022/03/25 06:19:17;;;;;;;3.47;3.17;;;18.90;45.40;;;;;;5002551;28;45470;-61
2022/03/25 06:21:43;;;;;;;3.42;3.03;;;18.60;46.00;;;;;;5004066;28;45361;-62
2022/03/25 06:24:08;;;;;;;3.40;3.10;;;18.50;46.40;;;;;;5005803;28;44802;-61
2022/03/25 06:26:34;;;;;;;3.97;3.38;;;18.40;46.70;;;;;;5003651;28;46750;-63
2022/03/25 06:28:59;;;;;;;6.25;3.15;;;18.30;46.80;;;;;;5001583;28;46034;-61
2022/03/25 06:31:25;;;;;;;3.20;2.90;;;18.20;47.00;;;;;;4998176;28;45373;-61
2022/03/25 06:33:50;;;;;;;4.63;3.67;;;18.20;47.00;;;;;;4995739;28;45238;-61
2022/03/25 06:36:16;;;;;;;5.85;5.03;;;18.20;46.90;;;;;;5006204;28;45249;-63
2022/03/25 06:38:42;;;;;;;11.25;8.20;;;18.20;46.20;;;;;;5003092;28;45764;-60
2022/03/25 06:41:08;;;;;;;14.80;11.77;;;18.20;45.50;;;;;;5005426;28;46181;-61
2022/03/25 06:43:34;;;;;;;18.63;13.80;;;18.10;43.60;;;;;;5006548;28;44753;-63
2022/03/25 06:46:00;;;;;;;20.17;13.95;;;18.10;43.20;;;;;;4997020;28;45245;-62
2022/03/25 06:48:26;;;;;;;16.63;12.63;;;18.00;43.00;;;;;;5003400;28;46089;-62
2022/03/25 06:50:51;;;;;;;15.68;12.27;;;18.00;43.30;;;;;;4986278;28;45217;-61
2022/03/25 06:53:17;;;;;;;14.93;12.02;;;18.00;43.00;;;;;;4991890;28;44700;-62
2022/03/25 06:55:44;;;;;;;16.55;11.82;;;18.00;43.20;;;;;;5007274;28;45328;-58
2022/03/25 06:58:10;;;;;;;12.95;10.48;;;18.00;43.40;;;;;;5004142;28;45240;-58
2022/03/25 07:00:36;;;;;;;13.60;10.48;;;18.00;43.70;;;;;;5000545;28;45229;-62
2022/03/25 07:03:02;;;;;;;12.60;9.48;;;18.00;43.90;;;;;;5011833;28;45207;-60
2022/03/25 07:05:30;;;;;;;12.93;9.85;;;18.00;43.90;;;;;;5008457;28;45213;-61
2022/03/25 07:07:55;;;;;;;12.25;9.75;;;18.10;44.20;;;;;;5004010;28;45282;-60
2022/03/25 07:10:23;;;;;;;11.10;8.98;;;18.10;44.80;;;;;;5006706;28;45319;-60
2022/03/25 07:12:49;;;;;;;10.20;8.52;;;18.10;44.30;;;;;;5008408;28;45388;-61
2022/03/25 07:15:15;;;;;;;9.88;8.52;;;18.10;44.30;;;;;;5006040;28;45350;-60
2022/03/25 07:17:43;;;;;;;11.95;8.50;;;18.20;44.40;;;;;;5003884;28;46069;-58
2022/03/25 07:20:10;;;;;;;10.48;8.32;;;18.20;44.50;;;;;;5006400;28;45170;-62
2022/03/25 07:22:36;;;;;;;11.75;7.85;;;18.30;44.60;;;;;;5002563;28;45734;-61
2022/03/25 07:25:02;;;;;;;11.25;8.45;;;18.30;44.50;;;;;;5000911;28;45602;-62
2022/03/25 07:27:28;;;;;;;11.32;7.85;;;18.30;44.60;;;;;;5003338;28;45359;-61
2022/03/25 07:29:53;;;;;;;11.48;8.68;;;18.30;44.60;;;;;;4992239;28;45494;-59
2022/03/25 07:32:19;;;;;;;12.32;8.10;;;18.40;44.60;;;;;;5002216;28;45344;-62
2022/03/25 07:34:44;;;;;;;8.85;7.53;;;18.40;44.60;;;;;;4991256;28;45229;-61
2022/03/25 07:37:10;;;;;;;9.45;7.90;;;18.40;44.60;;;;;;5002332;28;46683;-61
2022/03/25 07:39:35;;;;;;;14.77;8.18;;;18.40;44.60;;;;;;5019491;28;45540;-61
2022/03/25 07:42:01;;;;;;;10.73;8.38;;;18.50;44.60;;;;;;5001334;28;45589;-58
2022/03/25 07:44:27;;;;;;;9.75;7.85;;;18.50;44.60;;;;;;5003538;28;45486;-62
2022/03/25 07:46:53;;;;;;;9.93;7.85;;;18.50;44.60;;;;;;5004532;28;46425;-61
2022/03/25 07:49:18;;;;;;;8.85;7.03;;;18.60;44.60;;;;;;5003056;28;44667;-61
2022/03/25 07:51:44;;;;;;;10.63;7.07;;;18.60;44.50;;;;;;4990773;28;45317;-59
2022/03/25 07:54:10;;;;;;;9.73;6.82;;;18.60;44.50;;;;;;5004712;28;45761;-62
2022/03/25 07:56:36;;;;;;;9.70;7.28;;;18.60;44.60;;;;;;5003178;28;45915;-60
2022/03/25 07:59:03;;;;;;;8.98;7.13;;;18.70;44.60;;;;;;5002920;28;45346;-63
2022/03/25 08:01:29;;;;;;;10.07;7.65;;;18.70;44.60;;;;;;5002671;28;45218;-62
2022/03/25 08:03:55;;;;;;;7.95;6.90;;;18.70;44.70;;;;;;5007957;28;44825;-58
2022/03/25 08:06:22;;;;;;;9.30;7.70;;;18.70;44.70;;;;;;5005523;28;46088;-63
2022/03/25 08:08:49;;;;;;;7.90;6.60;;;18.80;44.80;;;;;;5003618;28;45173;-61
2022/03/25 08:11:14;;;;;;;7.97;5.97;;;18.80;44.80;;;;;;5002462;28;44760;-60
2022/03/25 08:13:40;;;;;;;7.90;6.32;;;18.80;44.80;;;;;;5001289;28;45435;-62
2022/03/25 08:16:06;;;;;;;7.70;6.60;;;18.80;44.80;;;;;;5001553;28;45938;-64
2022/03/25 08:18:32;;;;;;;8.13;6.45;;;18.80;44.80;;;;;;5006983;28;45743;-63
2022/03/25 08:20:57;;;;;;;7.60;6.38;;;18.80;44.80;;;;;;5006036;28;45905;-60
2022/03/25 08:28:57;;;;;;;7.28;5.63;;;19.00;44.90;;;;;;4999682;28;45220;-62
2022/03/25 08:31:23;;;;;;;9.20;5.85;;;18.90;44.80;;;;;;5003283;28;45905;-60
2022/03/25 08:33:49;;;;;;;9.93;5.82;;;19.00;44.90;;;;;;5005356;28;45290;-59
2022/03/25 08:36:16;;;;;;;8.02;6.13;;;19.00;44.90;;;;;;5009184;28;46141;-60
2022/03/25 08:38:42;;;;;;;7.80;5.90;;;19.00;44.90;;;;;;4995317;28;46025;-62
2022/03/25 08:41:07;;;;;;;10.82;5.68;;;19.10;45.00;;;;;;5009065;28;45245;-62
2022/03/25 08:43:33;;;;;;;8.85;5.68;;;19.10;45.00;;;;;;4993669;28;45109;-63
2022/03/25 08:45:59;;;;;;;6.53;5.50;;;19.10;45.00;;;;;;5008827;28;46086;-62
2022/03/25 08:48:24;;;;;;;10.88;5.63;;;19.10;45.00;;;;;;4994296;28;45271;-63
2022/03/25 08:50:50;;;;;;;9.15;5.45;;;19.10;45.00;;;;;;5008303;28;45450;-63
2022/03/25 08:53:17;;;;;;;9.15;6.00;;;19.20;45.00;;;;;;5004854;28;45162;-62
2022/03/25 08:55:43;;;;;;;7.88;5.60;;;19.20;45.00;;;;;;5005719;28;46937;-64
2022/03/25 08:58:08;;;;;;;8.23;5.30;;;19.20;45.00;;;;;;4995963;28;45190;-65
2022/03/25 09:00:34;;;;;;;7.00;5.18;;;19.20;45.00;;;;;;5006483;28;45485;-62
2022/03/25 09:02:59;;;;;;;7.22;5.80;;;19.20;45.00;;;;;;5005977;28;45380;-62
2022/03/25 09:05:25;;;;;;;7.30;5.40;;;19.20;45.00;;;;;;5002143;28;45125;-61
2022/03/25 09:07:51;;;;;;;7.57;5.88;;;19.20;45.00;;;;;;5006525;28;45299;-61
2022/03/25 09:10:16;;;;;;;6.55;5.28;;;19.20;45.10;;;;;;5002413;28;45390;-60
2022/03/25 09:12:43;;;;;;;7.13;5.50;;;19.30;45.20;;;;;;5003014;28;45670;-63
2022/03/25 09:15:09;;;;;;;6.30;5.40;;;19.30;45.10;;;;;;4994563;28;45084;-60
2022/03/25 09:17:35;;;;;;;5.93;5.32;;;19.30;45.20;;;;;;4995688;28;45418;-63
2022/03/25 09:20:03;;;;;;;7.63;4.90;;;19.30;45.20;;;;;;4993063;28;45384;-62
2022/03/25 09:22:30;;;;;;;6.70;5.05;;;19.30;45.30;;;;;;5009258;28;45794;-60
2022/03/25 09:24:55;;;;;;;5.63;5.03;;;19.30;45.30;;;;;;5004844;28;46137;-63
2022/03/25 09:27:21;;;;;;;9.98;5.68;;;19.30;45.20;;;;;;4996100;28;45246;-61
2022/03/25 09:29:47;;;;;;;5.68;4.78;;;19.30;45.30;;;;;;5005540;28;45370;-64
2022/03/25 09:32:12;;;;;;;5.32;4.38;;;19.40;45.30;;;;;;5008963;28;45213;-62
2022/03/25 09:37:22;;;;;;;8.38;4.97;;;19.40;45.30;;;;;;5004993;28;45403;-64
2022/03/25 09:39:49;;;;;;;5.15;4.63;;;19.40;45.30;;;;;;5006891;28;45835;-61
2022/03/25 09:42:15;;;;;;;7.25;4.93;;;19.40;45.30;;;;;;5007690;28;44773;-63
2022/03/25 09:44:42;;;;;;;8.30;4.57;;;19.40;45.30;;;;;;5006672;28;46161;-60
2022/03/25 09:47:10;;;;;;;5.07;4.38;;;19.50;45.40;;;;;;5010524;28;45261;-63
2022/03/25 09:49:36;;;;;;;5.60;4.97;;;19.50;45.40;;;;;;5008910;28;45675;-62
2022/03/25 09:52:01;;;;;;;6.78;5.20;;;19.50;45.40;;;;;;5009341;28;45615;-62
2022/03/25 09:54:27;;;;;;;6.35;5.40;;;19.50;45.40;;;;;;4995183;28;47561;-63
2022/03/25 09:56:53;;;;;;;8.23;5.28;;;19.50;45.40;;;;;;5008714;28;44722;-62
2022/03/25 09:59:18;;;;;;;10.98;4.90;;;19.60;45.40;;;;;;5007234;28;44725;-63
2022/03/25 10:01:44;;;;;;;5.90;4.35;;;19.60;45.40;;;;;;5004456;28;45632;-63
2022/03/25 10:04:42;;;;;;;6.95;4.95;;;19.60;45.40;;;;;;5007257;28;45232;-62
2022/03/25 10:07:16;;;;;;;5.85;4.90;;;19.50;45.50;;;;;;5005234;28;45453;-62
2022/03/25 10:09:42;;;;;;;;;;;19.60;45.50;;;;;;5004912;28;45674;-62
2022/03/25 10:12:24;;;;;;;4.28;3.88;;;19.60;45.60;;;;;;5004462;28;45099;-61
2022/03/25 10:14:51;;;;;;;4.83;4.27;;;19.60;45.60;;;;;;5004235;28;45244;-58
2022/03/25 10:17:17;;;;;;;5.55;4.43;;;19.60;45.50;;;;;;5005393;28;45303;-61
2022/03/25 10:19:47;;;;;;;4.95;4.20;;;19.60;45.40;;;;;;4987145;28;45174;-61
2022/03/25 10:22:13;;;;;;;6.60;4.35;;;19.70;45.50;;;;;;5007482;28;45147;-62
2022/03/25 10:24:44;;;;;;;4.45;4.05;;;19.70;45.40;;;;;;5009201;28;46099;-61
2022/03/25 10:27:09;;;;;;;4.78;4.05;;;19.70;45.40;;;;;;5005667;28;45063;-63
2022/03/25 10:29:35;;;;;;;5.65;4.38;;;19.70;45.40;;;;;;4975389;28;45429;-62
2022/03/25 10:32:07;;;;;;;5.80;4.25;;;19.70;45.40;;;;;;5008528;28;45470;-63
2022/03/25 10:34:35;;;;;;;8.00;4.67;;;19.70;45.50;;;;;;5003257;28;46749;-62
2022/03/25 10:37:01;;;;;;;5.38;4.43;;;19.70;45.50;;;;;;5004506;28;45129;-60
2022/03/25 10:39:28;;;;;;;5.57;4.15;;;19.80;45.50;;;;;;5005375;28;45190;-60
2022/03/25 10:41:57;;;;;;;6.68;4.30;;;19.80;45.50;;;;;;5006916;28;45499;-61
2022/03/25 10:44:38;;;;;;;10.30;4.20;;;19.80;45.50;;;;;;4992050;28;46019;-57
2022/03/25 10:47:20;;;;;;;5.75;4.30;;;19.80;45.50;;;;;;4980264;28;45394;-61
2022/03/25 10:49:46;;;;;;;5.22;4.10;;;19.80;45.50;;;;;;5011953;28;45550;-61
2022/03/25 10:52:32;;;;;;;5.00;4.45;;;19.80;45.50;;;;;;5000212;28;44862;-62
2022/03/25 10:55:18;;;;;;;6.68;4.18;;;19.90;45.60;;;;;;5002195;28;45282;-59
2022/03/25 10:57:48;;;;;;;5.45;4.43;;;19.90;45.60;;;;;;5003023;28;45382;-62
2022/03/25 11:00:14;;;;;;;5.47;3.90;;;19.90;45.60;;;;;;4992681;28;47421;-61
2022/03/25 11:02:40;;;;;;;4.97;4.10;;;19.90;45.60;;;;;;4999676;28;45390;-61
2022/03/25 11:05:09;;;;;;;5.10;3.97;;;19.90;45.60;;;;;;5005416;28;46019;-59
2022/03/25 11:07:38;;;;;;;7.00;4.50;;;19.90;45.60;;;;;;5007316;28;45173;-61
2022/03/25 11:10:04;;;;;;;5.88;4.38;;;19.90;45.60;;;;;;4984875;28;45466;-61
2022/03/25 11:12:30;;;;;;;6.15;4.35;;;19.90;45.60;;;;;;5001680;28;45003;-63
2022/03/25 11:14:58;;;;;;;7.30;4.32;;;19.90;45.60;;;;;;5001603;28;45575;-62
2022/03/25 11:17:27;;;;;;;5.88;4.72;;;19.90;45.60;;;;;;5015853;28;45223;-62
2022/03/25 11:19:53;;;;;;;4.82;4.03;;;19.90;45.50;;;;;;4991713;28;45615;-62
2022/03/25 11:22:19;;;;;;;4.00;3.55;;;19.90;45.50;;;;;;4978641;28;44760;-64
2022/03/25 11:24:47;;;;;;;5.22;4.15;;;19.90;45.50;;;;;;4990849;28;45997;-62
2022/03/25 11:27:25;;;;;;;4.80;3.75;;;19.90;45.60;;;;;;5002801;28;46023;-63
2022/03/25 11:29:53;;;;;;;4.47;3.80;;;20.00;46.30;;;;;;4989436;28;45413;-64
2022/03/25 11:32:20;;;;;;;4.88;3.90;;;19.90;45.70;;;;;;5004183;28;44986;-62
2022/03/25 11:34:54;;;;;;;5.53;3.80;;;19.90;45.70;;;;;;5000700;28;45407;-64
2022/03/25 11:37:22;;;;;;;4.68;4.13;;;19.90;45.70;;;;;;5003777;28;44665;-61
2022/03/25 11:40:08;;;;;;;5.22;4.03;;;19.90;45.70;;;;;;4989353;28;45253;-63
2022/03/25 11:42:49;;;;;;;7.60;4.45;;;19.90;45.70;;;;;;5002178;28;45880;-62
2022/03/25 11:45:21;;;;;;;5.88;4.20;;;19.90;45.70;;;;;;5004833;28;45558;-62
2022/03/25 11:48:09;;;;;;;4.95;3.80;;;19.90;45.70;;;;;;5004032;28;45260;-63
2022/03/25 11:50:42;;;;;;;4.93;3.75;;;19.90;45.80;;;;;;4999505;28;45379;-64
2022/03/25 11:53:11;;;;;;;6.53;4.45;;;19.90;45.80;;;;;;4994277;28;45595;-64
2022/03/25 11:56:02;;;;;;;4.97;4.47;;;19.90;45.70;;;;;;5007448;28;46126;-57
2022/03/25 11:58:37;;;;;;;5.40;4.88;;;19.90;45.60;;;;;;5006999;28;45253;-55
2022/03/25 12:01:09;;;;;;;6.80;5.63;;;19.90;45.40;;;;;;5004274;28;45136;-58
2022/03/25 12:03:41;;;;;;;9.75;6.38;;;20.00;46.20;;;;;;5012384;28;45283;-56
2022/03/25 12:06:08;;;;;;;9.38;7.20;;;20.00;45.40;;;;;;5004263;28;45751;-57
2022/03/25 12:08:36;;;;;;;7.95;6.78;;;20.00;44.90;;;;;;5002105;28;45181;-58
2022/03/25 12:11:10;;;;;;;13.73;7.45;;;20.00;44.80;;;;;;5005611;28;45222;-56
2022/03/25 12:14:02;;;;;;;9.13;7.47;;;20.00;44.30;;;;;;5001612;28;45203;-59
2022/03/25 12:16:45;;;;;;;11.57;8.77;;;20.00;44.00;;;;;;5003427;28;46297;-56
2022/03/25 12:19:26;;;;;;;12.15;8.30;;;20.00;43.70;;;;;;5007148;28;44793;-53
2022/03/25 12:22:28;;;;;;;9.55;7.95;;;20.00;43.80;;;;;;5009657;28;44670;-51
2022/03/25 12:24:58;;;;;;;12.60;8.55;;;20.00;43.90;;;;;;4999785;28;44642;-58
2022/03/25 12:27:23;;;;;;;11.18;8.57;;;20.00;43.80;;;;;;5000212;28;45302;-55
2022/03/25 12:29:54;;;;;;;11.82;9.32;;;20.00;43.80;;;;;;5006209;28;45229;-54
2022/03/25 12:32:22;;;;;;;16.35;10.23;;;19.90;43.70;;;;;;5012604;28;45536;-54
2022/03/25 12:35:01;;;;;;;14.00;9.50;;;19.90;44.20;;;;;;5011008;28;45332;-55
2022/03/25 12:37:39;;;;;;;10.75;8.43;;;19.90;43.30;;;;;;5002672;28;45971;-55
2022/03/25 12:40:25;;;;;;;14.23;8.70;;;19.90;43.20;;;;;;5001987;28;45111;-58
2022/03/25 12:42:58;;;;;;;13.43;9.68;;;19.90;42.90;;;;;;5004349;28;45331;-56
2022/03/25 12:45:36;;;;;;;;;;;19.90;43.30;;;;;;5000740;28;45670;-57
2022/03/25 12:48:15;;;;;;;12.23;8.98;;;19.90;41.80;;;;;;4998297;28;45915;-55
2022/03/25 12:50:45;;;;;;;13.40;9.00;;;19.90;42.90;;;;;;4996154;28;44621;-56
2022/03/25 12:53:11;;;;;;;12.48;10.05;;;19.90;42.80;;;;;;4998607;28;45305;-56
2022/03/25 12:55:36;;;;;;;13.48;10.57;;;19.90;42.70;;;;;;5007365;28;45269;-58
2022/03/25 12:58:12;;;;;;;11.68;9.68;;;19.90;42.80;;;;;;5007167;28;46074;-57
2022/03/25 13:00:48;;;;;;;13.35;9.55;;;19.90;42.20;;;;;;4997747;28;45197;-53
2022/03/25 13:03:14;;;;;;;18.98;9.80;;;19.90;42.10;;;;;;5009137;28;45240;-57
2022/03/25 13:05:41;;;;;;;15.48;11.25;;;19.90;42.50;;;;;;4999241;28;45324;-56
2022/03/25 13:08:06;;;;;;;18.20;11.48;;;19.90;42.50;;;;;;5003158;28;45510;-59
2022/03/25 13:10:32;;;;;;;13.93;11.00;;;19.90;42.50;;;;;;5002339;28;45523;-58
2022/03/25 13:12:59;;;;;;;15.32;10.30;;;19.90;42.40;;;;;;5003184;28;45636;-56
2022/03/25 13:15:27;;;;;;;13.20;9.85;;;19.90;42.40;;;;;;5006754;28;45302;-57
2022/03/25 13:17:54;;;;;;;14.10;10.45;;;19.90;42.50;;;;;;4999819;28;46209;-58
2022/03/25 13:20:20;;;;;;;14.88;9.80;;;19.90;42.50;;;;;;5000802;28;44751;-57
2022/03/25 13:23:06;;;;;;;12.02;9.25;;;19.90;42.60;;;;;;5004773;28;45250;-59
2022/03/25 13:25:34;;;;;;;14.23;9.70;;;19.90;42.40;;;;;;5004408;28;45488;-56
2022/03/25 13:28:00;;;;;;;13.32;9.40;;;19.90;42.70;;;;;;4998121;28;46786;-61
2022/03/25 13:30:27;;;;;;;14.07;9.27;;;19.90;42.80;;;;;;5008709;28;45241;-55
2022/03/25 13:32:58;;;;;;;12.75;8.93;;;19.90;42.80;;;;;;5011077;28;45446;-57
2022/03/25 13:35:30;;;;;;;13.30;9.25;;;19.90;42.80;;;;;;5001924;28;45206;-54
2022/03/25 13:38:04;;;;;;;12.63;9.03;;;19.90;42.80;;;;;;5001722;28;47169;-57
2022/03/25 13:40:32;;;;;;;10.55;8.45;;;19.90;43.00;;;;;;4990726;28;46583;-55
2022/03/25 13:42:58;;;;;;;11.90;8.95;;;19.90;43.10;;;;;;5009541;28;45029;-57
2022/03/25 13:45:24;;;;;;;11.02;8.45;;;19.90;43.10;;;;;;5006548;28;45477;-55
2022/03/25 13:48:04;;;;;;;9.68;7.82;;;19.90;43.20;;;;;;4999039;28;45906;-55
2022/03/25 13:50:29;;;;;;;11.77;8.05;;;19.90;43.10;;;;;;5010050;28;45014;-55
2022/03/25 13:52:56;;;;;;;9.95;8.00;;;19.90;43.30;;;;;;5005689;28;45230;-56
2022/03/25 13:55:31;;;;;;;12.77;8.25;;;19.90;43.40;;;;;;5003862;28;45350;-57
2022/03/25 13:57:57;;;;;;;10.30;7.70;;;19.90;43.40;;;;;;5001295;28;45998;-56
2022/03/25 14:00:36;;;;;;;9.60;7.57;;;19.90;43.40;;;;;;4995834;28;45637;-57
2022/03/25 14:03:02;;;;;;;9.10;7.28;;;19.90;43.40;;;;;;4997181;28;44973;-60
2022/03/25 14:05:31;;;;;;;10.23;7.63;;;19.90;43.60;;;;;;5004168;28;45405;-57
2022/03/25 14:07:58;;;;;;;9.45;7.22;;;19.90;43.60;;;;;;4998247;28;47023;-57
2022/03/25 14:10:25;;;;;;;9.20;6.85;;;19.90;43.60;;;;;;4999472;28;45429;-57
2022/03/25 14:13:04;;;;;;;8.35;6.55;;;19.90;43.70;;;;;;5004047;28;45120;-57
2022/03/25 14:15:30;;;;;;;11.50;6.97;;;19.90;43.70;;;;;;5000605;28;45557;-56
2022/03/25 14:17:55;;;;;;;8.77;6.90;;;19.90;43.80;;;;;;5004727;28;46081;-59
2022/03/25 14:20:23;;;;;;;9.52;6.80;;;19.90;43.80;;;;;;5003315;28;45255;-58
2022/03/25 14:22:53;;;;;;;9.02;6.38;;;19.90;43.90;;;;;;4995589;28;45237;-55
2022/03/25 14:25:21;;;;;;;9.02;6.78;;;19.90;43.90;;;;;;5004329;28;45073;-60
2022/03/25 14:27:56;;;;;;;9.25;6.38;;;19.90;43.90;;;;;;5000363;28;46413;-59
2022/03/25 14:30:22;;;;;;;10.55;6.50;;;19.90;44.00;;;;;;4999792;28;45568;-58
2022/03/25 14:32:48;;;;;;;7.35;5.68;;;19.90;44.10;;;;;;5000538;28;44809;-54
2022/03/25 14:35:13;;;;;;;7.90;6.07;;;20.00;44.10;;;;;;4995880;28;44961;-56
2022/03/25 14:37:39;;;;;;;7.15;5.53;;;20.00;44.10;;;;;;5001953;28;45996;-60
2022/03/25 14:40:06;;;;;;;7.95;6.22;;;20.00;44.20;;;;;;5002804;28;45079;-57
2022/03/25 14:42:32;;;;;;;9.43;6.05;;;20.00;44.20;;;;;;5005793;28;45250;-57
2022/03/25 14:44:58;;;;;;;7.60;6.35;;;20.00;44.20;;;;;;5000021;28;45510;-56
2022/03/25 14:47:23;;;;;;;7.13;5.80;;;20.00;44.30;;;;;;4996647;28;46184;-58
2022/03/25 14:49:49;;;;;;;7.47;5.53;;;20.00;44.30;;;;;;5000903;28;45294;-56
2022/03/25 14:52:14;;;;;;;7.18;6.05;;;20.00;44.30;;;;;;5001412;28;46216;-57
2022/03/25 14:54:41;;;;;;;6.78;5.82;;;20.00;44.30;;;;;;5014349;28;45520;-55
2022/03/25 14:57:07;;;;;;;6.63;5.10;;;20.00;44.40;;;;;;5002300;28;46181;-58
2022/03/25 14:59:35;;;;;;;10.75;5.55;;;20.00;44.40;;;;;;5005105;28;45521;-58
2022/03/25 15:02:00;;;;;;;6.07;5.30;;;20.00;44.40;;;;;;5005473;28;45085;-57
2022/03/25 15:04:26;;;;;;;7.65;5.88;;;20.00;44.50;;;;;;5003501;28;45358;-55
2022/03/25 15:06:52;;;;;;;7.47;5.57;;;20.00;44.50;;;;;;4996427;28;46283;-59
2022/03/25 15:09:17;;;;;;;6.30;5.40;;;20.00;44.50;;;;;;4996780;28;44814;-59
2022/03/25 15:11:43;;;;;;;7.57;5.75;;;20.00;44.50;;;;;;4997690;28;45267;-59
2022/03/25 15:14:09;;;;;;;6.90;5.43;;;20.00;44.60;;;;;;5002022;28;45416;-57
2022/03/25 15:16:35;;;;;;;8.02;5.90;;;20.00;44.60;;;;;;5000498;28;46535;-60
2022/03/25 15:19:01;;;;;;;6.28;5.38;;;20.00;44.70;;;;;;5003469;28;45216;-57
2022/03/25 15:21:27;;;;;;;7.47;5.40;;;20.00;44.70;;;;;;5005018;28;45272;-56
2022/03/25 15:23:53;;;;;;;6.57;4.85;;;20.00;44.70;;;;;;4999667;28;44752;-58
2022/03/25 15:26:19;;;;;;;7.47;5.22;;;20.10;44.80;;;;;;4998533;28;46540;-56
2022/03/25 15:28:44;;;;;;;6.03;4.75;;;20.00;44.80;;;;;;5005923;28;45501;-53
2022/03/25 15:36:38;;;;;;;6.57;5.55;;;20.10;44.10;;;;;;5005768;28;46576;-53
2022/03/25 15:39:04;;;;;;;7.35;5.75;;;20.00;44.70;;;;;;5006477;28;45508;-58
2022/03/25 15:41:30;;;;;;;7.70;6.28;;;20.00;44.60;;;;;;5002219;28;45606;-56
2022/03/25 15:43:56;;;;;;;7.65;5.78;;;20.00;44.60;;;;;;4988399;28;45461;-56
2022/03/25 15:46:21;;;;;;;7.43;5.70;;;20.00;44.40;;;;;;4987478;28;45826;-54
2022/03/25 15:48:49;;;;;;;8.63;6.07;;;20.00;44.50;;;;;;4991516;28;45278;-55
2022/03/25 15:51:18;;;;;;;9.13;5.85;;;20.00;44.60;;;;;;4991965;28;45506;-54
2022/03/25 15:53:44;;;;;;;6.93;5.75;;;20.00;44.60;;;;;;4989029;28;45337;-59
2022/03/25 15:56:11;;;;;;;6.90;5.68;;;20.00;44.70;;;;;;4991530;28;45808;-56
2022/03/25 15:58:36;;;;;;;8.07;5.38;;;19.90;44.70;;;;;;4990105;28;44840;-55
2022/03/25 16:01:02;;;;;;;6.30;5.50;;;19.90;44.70;;;;;;4990107;28;45709;-57
2022/03/25 16:03:28;;;;;;;8.40;5.15;;;19.90;44.80;;;;;;4991283;28;45416;-55
2022/03/25 16:05:53;;;;;;;6.70;5.57;;;19.90;44.80;;;;;;4989749;28;46234;-58
2022/03/25 16:08:20;;;;;;;6.53;5.60;;;19.90;44.80;;;;;;4992322;28;45497;-56
2022/03/25 16:10:48;;;;;;;6.70;5.35;;;19.90;44.90;;;;;;4991816;28;45675;-56
2022/03/25 16:13:14;;;;;;;6.20;5.28;;;19.90;44.90;;;;;;4993618;28;45802;-58
2022/03/25 16:15:40;;;;;;;7.05;5.82;;;19.90;44.90;;;;;;4993235;28;46128;-59
2022/03/25 16:18:06;;;;;;;6.43;5.57;;;19.90;44.90;;;;;;4989061;28;45456;-58
2022/03/25 16:20:32;;;;;;;6.78;5.10;;;19.90;45.00;;;;;;4992450;28;45194;-58
2022/03/25 16:22:57;;;;;;;6.90;5.80;;;19.80;45.00;;;;;;4991287;28;45633;-58
2022/03/25 16:25:23;;;;;;;6.80;5.50;;;19.80;44.90;;;;;;4989115;28;47449;-56
2022/03/25 16:27:49;;;;;;;7.40;5.78;;;19.80;45.00;;;;;;4988784;28;45329;-56
2022/03/25 16:30:15;;;;;;;6.75;5.55;;;19.80;45.00;;;;;;4988091;28;45304;-56
2022/03/25 16:32:41;;;;;;;7.30;5.60;;;19.80;45.00;;;;;;4992244;28;45682;-57
2022/03/25 16:35:08;;;;;;;6.65;5.40;;;19.80;45.00;;;;;;4991307;28;46153;-56
2022/03/25 16:37:34;;;;;;;8.70;5.63;;;19.80;45.00;;;;;;4996177;28;45472;-61
2022/03/25 16:40:03;;;;;;;7.03;5.80;;;19.80;45.10;;;;;;4989667;28;45427;-55
2022/03/25 16:42:28;;;;;;;7.30;5.32;;;19.80;45.10;;;;;;4997049;28;45551;-54
2022/03/25 16:44:54;;;;;;;6.65;5.18;;;19.80;45.10;;;;;;4993837;28;46983;-53
2022/03/25 16:47:21;;;;;;;5.22;4.72;;;19.70;45.10;;;;;;4993222;28;45270;-56
2022/03/25 16:49:48;;;;;;;7.28;5.78;;;19.70;45.20;;;;;;4992919;28;45237;-53
2022/03/25 16:52:14;;;;;;;6.18;5.45;;;19.70;45.20;;;;;;4992695;28;45612;-58
2022/03/25 16:54:40;;;;;;;6.15;5.00;;;19.70;45.20;;;;;;4992632;28;46471;-59
2022/03/25 16:57:05;;;;;;;6.18;5.15;;;19.70;45.20;;;;;;4994635;28;45352;-56
2022/03/25 16:59:31;;;;;;;6.90;5.63;;;19.70;45.30;;;;;;4997060;28;45582;-55
2022/03/25 17:02:00;;;;;;;5.55;4.63;;;19.70;45.30;;;;;;4992053;28;45625;-56
2022/03/25 17:04:25;;;;;;;6.95;4.90;;;19.70;45.40;;;;;;4996453;28;46060;-55